sensor_id;sensor_type;location;lat;lon;timestamp;P1;durP1;ratioP1;P2;durP2;ratioP2
16977;SDS011;8605;52.548;4.918;2023-07-28T00:02:21;9.10;;;4.70;;
16977;SDS011;8605;52.548;4.918;2023-07-28T00:07:24;11.35;;;4.68;;
16977;SDS011;8605;52.548;4.918;2023-07-28T00:12:27;11.80;;;4.93;;
16977;SDS011;8605;52.548;4.918;2023-07-28T00:17:32;8.38;;;4.35;;
16977;SDS011;8605;52.548;4.918;2023-07-28T00:22:35;12.73;;;4.00;;
16977;SDS011;8605;52.548;4.918;2023-07-28T00:27:38;13.93;;;4.43;;
16977;SDS011;8605;52.548;4.918;2023-07-28T00:32:42;11.98;;;4.95;;
16977;SDS011;8605;52.548;4.918;2023-07-28T00:37:45;12.27;;;3.97;;
16977;SDS011;8605;52.548;4.918;2023-07-28T00:42:48;11.55;;;4.97;;
16977;SDS011;8605;52.548;4.918;2023-07-28T00:47:54;10.13;;;4.80;;
16977;SDS011;8605;52.548;4.918;2023-07-28T00:52:59;13.95;;;5.47;;
16977;SDS011;8605;52.548;4.918;2023-07-28T00:58:02;11.13;;;5.07;;
16977;SDS011;8605;52.548;4.918;2023-07-28T01:03:06;13.82;;;4.63;;
16977;SDS011;8605;52.548;4.918;2023-07-28T01:08:11;11.65;;;4.03;;
16977;SDS011;8605;52.548;4.918;2023-07-28T01:13:17;9.23;;;4.63;;
16977;SDS011;8605;52.548;4.918;2023-07-28T01:18:21;9.97;;;4.13;;
16977;SDS011;8605;52.548;4.918;2023-07-28T01:23:27;11.35;;;4.70;;
16977;SDS011;8605;52.548;4.918;2023-07-28T01:28:37;10.27;;;4.45;;
16977;SDS011;8605;52.548;4.918;2023-07-28T01:33:40;13.80;;;4.90;;
16977;SDS011;8605;52.548;4.918;2023-07-28T01:38:43;9.60;;;4.78;;
16977;SDS011;8605;52.548;4.918;2023-07-28T01:43:47;11.27;;;4.00;;
16977;SDS011;8605;52.548;4.918;2023-07-28T01:48:50;7.88;;;3.90;;
16977;SDS011;8605;52.548;4.918;2023-07-28T01:53:54;11.10;;;4.55;;
16977;SDS011;8605;52.548;4.918;2023-07-28T01:58:58;10.07;;;4.57;;
16977;SDS011;8605;52.548;4.918;2023-07-28T02:04:02;13.55;;;4.78;;
16977;SDS011;8605;52.548;4.918;2023-07-28T02:09:06;11.82;;;4.05;;
16977;SDS011;8605;52.548;4.918;2023-07-28T02:14:11;6.37;;;3.93;;
16977;SDS011;8605;52.548;4.918;2023-07-28T02:19:14;16.02;;;5.88;;
16977;SDS011;8605;52.548;4.918;2023-07-28T02:24:17;10.20;;;5.13;;
16977;SDS011;8605;52.548;4.918;2023-07-28T02:29:21;11.23;;;4.75;;
16977;SDS011;8605;52.548;4.918;2023-07-28T02:34:24;11.48;;;5.30;;
16977;SDS011;8605;52.548;4.918;2023-07-28T02:39:27;17.40;;;6.70;;
16977;SDS011;8605;52.548;4.918;2023-07-28T02:44:32;12.43;;;5.53;;
16977;SDS011;8605;52.548;4.918;2023-07-28T02:49:35;13.15;;;5.18;;
16977;SDS011;8605;52.548;4.918;2023-07-28T02:54:38;9.90;;;5.47;;
16977;SDS011;8605;52.548;4.918;2023-07-28T02:59:42;12.30;;;5.33;;
16977;SDS011;8605;52.548;4.918;2023-07-28T03:04:45;13.07;;;5.57;;
16977;SDS011;8605;52.548;4.918;2023-07-28T03:09:51;9.93;;;5.22;;
16977;SDS011;8605;52.548;4.918;2023-07-28T03:14:56;13.90;;;6.17;;
16977;SDS011;8605;52.548;4.918;2023-07-28T03:19:59;14.85;;;6.25;;
16977;SDS011;8605;52.548;4.918;2023-07-28T03:25:02;9.88;;;5.03;;
16977;SDS011;8605;52.548;4.918;2023-07-28T03:30:07;14.57;;;5.78;;
16977;SDS011;8605;52.548;4.918;2023-07-28T03:35:12;11.93;;;5.80;;
16977;SDS011;8605;52.548;4.918;2023-07-28T03:40:22;15.63;;;6.93;;
16977;SDS011;8605;52.548;4.918;2023-07-28T03:45:29;10.63;;;5.80;;
16977;SDS011;8605;52.548;4.918;2023-07-28T03:50:32;13.45;;;5.63;;
16977;SDS011;8605;52.548;4.918;2023-07-28T03:55:35;12.10;;;5.13;;
16977;SDS011;8605;52.548;4.918;2023-07-28T04:00:40;13.88;;;6.38;;
16977;SDS011;8605;52.548;4.918;2023-07-28T04:05:45;11.70;;;5.88;;
16977;SDS011;8605;52.548;4.918;2023-07-28T04:10:48;18.95;;;6.47;;
16977;SDS011;8605;52.548;4.918;2023-07-28T04:15:53;15.40;;;6.18;;
16977;SDS011;8605;52.548;4.918;2023-07-28T04:20:56;13.00;;;7.03;;
16977;SDS011;8605;52.548;4.918;2023-07-28T04:26:00;10.20;;;6.67;;
16977;SDS011;8605;52.548;4.918;2023-07-28T04:31:05;17.15;;;7.30;;
16977;SDS011;8605;52.548;4.918;2023-07-28T04:36:25;13.25;;;5.72;;
16977;SDS011;8605;52.548;4.918;2023-07-28T04:41:28;10.48;;;6.32;;
16977;SDS011;8605;52.548;4.918;2023-07-28T04:46:33;8.97;;;5.33;;
16977;SDS011;8605;52.548;4.918;2023-07-28T04:51:41;13.23;;;5.63;;
16977;SDS011;8605;52.548;4.918;2023-07-28T04:57:13;8.65;;;4.93;;
16977;SDS011;8605;52.548;4.918;2023-07-28T05:02:18;8.57;;;5.07;;
16977;SDS011;8605;52.548;4.918;2023-07-28T05:07:21;12.73;;;5.33;;
16977;SDS011;8605;52.548;4.918;2023-07-28T05:12:24;11.75;;;5.22;;
16977;SDS011;8605;52.548;4.918;2023-07-28T05:17:29;9.43;;;4.70;;
16977;SDS011;8605;52.548;4.918;2023-07-28T05:22:51;11.27;;;4.93;;
16977;SDS011;8605;52.548;4.918;2023-07-28T05:27:58;12.23;;;5.85;;
16977;SDS011;8605;52.548;4.918;2023-07-28T05:33:05;8.65;;;5.03;;
16977;SDS011;8605;52.548;4.918;2023-07-28T05:38:21;12.75;;;5.22;;
16977;SDS011;8605;52.548;4.918;2023-07-28T05:43:24;11.10;;;5.55;;
16977;SDS011;8605;52.548;4.918;2023-07-28T05:48:30;16.13;;;6.22;;
16977;SDS011;8605;52.548;4.918;2023-07-28T05:53:33;13.90;;;6.97;;
16977;SDS011;8605;52.548;4.918;2023-07-28T05:58:39;11.13;;;6.43;;
16977;SDS011;8605;52.548;4.918;2023-07-28T06:03:43;7.93;;;5.18;;
16977;SDS011;8605;52.548;4.918;2023-07-28T06:08:56;10.87;;;5.43;;
16977;SDS011;8605;52.548;4.918;2023-07-28T06:13:59;10.27;;;4.65;;
16977;SDS011;8605;52.548;4.918;2023-07-28T06:19:03;6.57;;;3.95;;
16977;SDS011;8605;52.548;4.918;2023-07-28T06:24:08;8.40;;;4.75;;
16977;SDS011;8605;52.548;4.918;2023-07-28T06:29:11;10.00;;;4.23;;
16977;SDS011;8605;52.548;4.918;2023-07-28T06:34:16;11.33;;;4.80;;
16977;SDS011;8605;52.548;4.918;2023-07-28T06:39:19;8.90;;;4.50;;
16977;SDS011;8605;52.548;4.918;2023-07-28T06:44:22;10.68;;;4.03;;
16977;SDS011;8605;52.548;4.918;2023-07-28T06:49:26;10.07;;;4.20;;
16977;SDS011;8605;52.548;4.918;2023-07-28T06:54:29;7.57;;;3.90;;
16977;SDS011;8605;52.548;4.918;2023-07-28T06:59:33;12.77;;;4.47;;
16977;SDS011;8605;52.548;4.918;2023-07-28T07:04:38;10.47;;;5.47;;
16977;SDS011;8605;52.548;4.918;2023-07-28T07:09:41;8.60;;;3.63;;
16977;SDS011;8605;52.548;4.918;2023-07-28T07:14:44;12.20;;;4.83;;
16977;SDS011;8605;52.548;4.918;2023-07-28T07:19:48;9.88;;;4.93;;
16977;SDS011;8605;52.548;4.918;2023-07-28T07:24:51;10.05;;;5.03;;
16977;SDS011;8605;52.548;4.918;2023-07-28T07:29:54;10.45;;;4.57;;
16977;SDS011;8605;52.548;4.918;2023-07-28T07:34:59;8.95;;;5.40;;
16977;SDS011;8605;52.548;4.918;2023-07-28T07:40:03;11.50;;;4.95;;
16977;SDS011;8605;52.548;4.918;2023-07-28T07:45:08;11.07;;;5.17;;
16977;SDS011;8605;52.548;4.918;2023-07-28T07:50:13;10.03;;;4.83;;
16977;SDS011;8605;52.548;4.918;2023-07-28T07:55:16;12.07;;;4.78;;
16977;SDS011;8605;52.548;4.918;2023-07-28T08:00:20;7.53;;;4.40;;
16977;SDS011;8605;52.548;4.918;2023-07-28T08:05:24;8.55;;;4.65;;
16977;SDS011;8605;52.548;4.918;2023-07-28T08:10:27;12.67;;;5.33;;
16977;SDS011;8605;52.548;4.918;2023-07-28T08:15:30;10.18;;;5.50;;
16977;SDS011;8605;52.548;4.918;2023-07-28T08:20:35;12.70;;;7.22;;
16977;SDS011;8605;52.548;4.918;2023-07-28T08:25:38;9.90;;;6.25;;
16977;SDS011;8605;52.548;4.918;2023-07-28T08:36:10;14.43;;;7.82;;
16977;SDS011;8605;52.548;4.918;2023-07-28T08:41:13;10.17;;;6.33;;
16977;SDS011;8605;52.548;4.918;2023-07-28T08:46:16;11.90;;;5.93;;
16977;SDS011;8605;52.548;4.918;2023-07-28T08:51:23;9.00;;;5.78;;
16977;SDS011;8605;52.548;4.918;2023-07-28T08:56:26;8.07;;;5.07;;
16977;SDS011;8605;52.548;4.918;2023-07-28T09:01:31;12.38;;;6.03;;
16977;SDS011;8605;52.548;4.918;2023-07-28T09:06:35;10.57;;;6.22;;
16977;SDS011;8605;52.548;4.918;2023-07-28T09:11:43;9.38;;;5.22;;
16977;SDS011;8605;52.548;4.918;2023-07-28T09:16:47;10.95;;;6.18;;
16977;SDS011;8605;52.548;4.918;2023-07-28T09:21:58;9.67;;;5.10;;
16977;SDS011;8605;52.548;4.918;2023-07-28T09:27:02;7.13;;;4.60;;
16977;SDS011;8605;52.548;4.918;2023-07-28T09:32:05;10.27;;;5.10;;
16977;SDS011;8605;52.548;4.918;2023-07-28T09:37:11;7.22;;;4.63;;
16977;SDS011;8605;52.548;4.918;2023-07-28T09:42:15;11.48;;;5.35;;
16977;SDS011;8605;52.548;4.918;2023-07-28T09:47:18;8.25;;;4.95;;
16977;SDS011;8605;52.548;4.918;2023-07-28T09:52:23;8.45;;;5.07;;
16977;SDS011;8605;52.548;4.918;2023-07-28T09:57:27;10.25;;;5.10;;
16977;SDS011;8605;52.548;4.918;2023-07-28T10:02:30;9.30;;;4.60;;
16977;SDS011;8605;52.548;4.918;2023-07-28T10:07:37;6.80;;;3.97;;
16977;SDS011;8605;52.548;4.918;2023-07-28T10:12:42;7.70;;;3.95;;
16977;SDS011;8605;52.548;4.918;2023-07-28T10:17:50;7.43;;;4.97;;
16977;SDS011;8605;52.548;4.918;2023-07-28T10:23:07;7.63;;;5.03;;
16977;SDS011;8605;52.548;4.918;2023-07-28T10:28:27;11.90;;;5.15;;
16977;SDS011;8605;52.548;4.918;2023-07-28T10:33:34;8.37;;;4.40;;
16977;SDS011;8605;52.548;4.918;2023-07-28T10:38:44;7.30;;;4.70;;
16977;SDS011;8605;52.548;4.918;2023-07-28T10:43:47;6.03;;;4.55;;
16977;SDS011;8605;52.548;4.918;2023-07-28T10:48:50;10.73;;;5.10;;
16977;SDS011;8605;52.548;4.918;2023-07-28T10:53:56;9.10;;;5.10;;
16977;SDS011;8605;52.548;4.918;2023-07-28T10:59:00;5.93;;;3.93;;
16977;SDS011;8605;52.548;4.918;2023-07-28T11:04:08;6.57;;;4.68;;
16977;SDS011;8605;52.548;4.918;2023-07-28T11:09:14;6.07;;;4.50;;
16977;SDS011;8605;52.548;4.918;2023-07-28T11:14:18;8.47;;;5.23;;
16977;SDS011;8605;52.548;4.918;2023-07-28T11:19:22;9.40;;;5.03;;
16977;SDS011;8605;52.548;4.918;2023-07-28T11:24:29;8.98;;;4.82;;
16977;SDS011;8605;52.548;4.918;2023-07-28T11:29:32;5.97;;;4.25;;
16977;SDS011;8605;52.548;4.918;2023-07-28T11:34:35;6.68;;;4.28;;
16977;SDS011;8605;52.548;4.918;2023-07-28T11:39:39;7.25;;;4.50;;
16977;SDS011;8605;52.548;4.918;2023-07-28T11:44:43;10.70;;;5.32;;
16977;SDS011;8605;52.548;4.918;2023-07-28T11:49:46;10.23;;;6.37;;
16977;SDS011;8605;52.548;4.918;2023-07-28T11:54:52;11.00;;;5.50;;
16977;SDS011;8605;52.548;4.918;2023-07-28T11:59:55;8.77;;;6.00;;
16977;SDS011;8605;52.548;4.918;2023-07-28T12:04:58;6.85;;;5.57;;
16977;SDS011;8605;52.548;4.918;2023-07-28T12:10:06;6.07;;;4.40;;
16977;SDS011;8605;52.548;4.918;2023-07-28T12:15:24;63.30;;;23.98;;
16977;SDS011;8605;52.548;4.918;2023-07-28T12:20:33;34.70;;;16.30;;
16977;SDS011;8605;52.548;4.918;2023-07-28T12:25:42;24.48;;;10.65;;
16977;SDS011;8605;52.548;4.918;2023-07-28T12:30:46;7.32;;;4.10;;
16977;SDS011;8605;52.548;4.918;2023-07-28T12:35:51;10.70;;;5.18;;
16977;SDS011;8605;52.548;4.918;2023-07-28T12:40:55;11.07;;;5.25;;
16977;SDS011;8605;52.548;4.918;2023-07-28T12:46:01;10.13;;;4.87;;
16977;SDS011;8605;52.548;4.918;2023-07-28T12:51:07;8.55;;;4.43;;
16977;SDS011;8605;52.548;4.918;2023-07-28T12:56:12;11.10;;;6.00;;
16977;SDS011;8605;52.548;4.918;2023-07-28T13:01:36;9.32;;;5.20;;
16977;SDS011;8605;52.548;4.918;2023-07-28T13:06:40;7.25;;;6.30;;
16977;SDS011;8605;52.548;4.918;2023-07-28T13:11:44;10.90;;;6.57;;
16977;SDS011;8605;52.548;4.918;2023-07-28T13:16:50;11.52;;;6.22;;
16977;SDS011;8605;52.548;4.918;2023-07-28T13:21:53;9.05;;;6.32;;
16977;SDS011;8605;52.548;4.918;2023-07-28T13:26:58;11.13;;;6.57;;
16977;SDS011;8605;52.548;4.918;2023-07-28T13:32:01;6.18;;;4.68;;
16977;SDS011;8605;52.548;4.918;2023-07-28T13:37:04;8.13;;;5.90;;
16977;SDS011;8605;52.548;4.918;2023-07-28T13:42:09;7.50;;;4.60;;
16977;SDS011;8605;52.548;4.918;2023-07-28T13:47:13;10.73;;;5.55;;
16977;SDS011;8605;52.548;4.918;2023-07-28T13:52:16;7.57;;;4.87;;
16977;SDS011;8605;52.548;4.918;2023-07-28T13:57:24;7.40;;;3.97;;
16977;SDS011;8605;52.548;4.918;2023-07-28T14:02:27;8.98;;;4.88;;
16977;SDS011;8605;52.548;4.918;2023-07-28T14:07:30;6.18;;;4.18;;
16977;SDS011;8605;52.548;4.918;2023-07-28T14:12:35;7.10;;;4.45;;
16977;SDS011;8605;52.548;4.918;2023-07-28T14:17:38;8.63;;;4.30;;
16977;SDS011;8605;52.548;4.918;2023-07-28T14:22:41;8.77;;;4.18;;
16977;SDS011;8605;52.548;4.918;2023-07-28T14:27:46;5.23;;;2.80;;
16977;SDS011;8605;52.548;4.918;2023-07-28T14:32:49;7.30;;;3.40;;
16977;SDS011;8605;52.548;4.918;2023-07-28T14:37:52;4.22;;;2.47;;
16977;SDS011;8605;52.548;4.918;2023-07-28T14:42:57;5.10;;;2.20;;
16977;SDS011;8605;52.548;4.918;2023-07-28T14:48:01;5.72;;;2.65;;
16977;SDS011;8605;52.548;4.918;2023-07-28T14:58:33;3.47;;;2.67;;
16977;SDS011;8605;52.548;4.918;2023-07-28T15:03:36;4.47;;;2.63;;
16977;SDS011;8605;52.548;4.918;2023-07-28T15:08:39;5.68;;;3.17;;
16977;SDS011;8605;52.548;4.918;2023-07-28T15:13:44;4.07;;;2.80;;
16977;SDS011;8605;52.548;4.918;2023-07-28T15:18:47;4.95;;;3.10;;
16977;SDS011;8605;52.548;4.918;2023-07-28T15:23:52;5.60;;;3.72;;
16977;SDS011;8605;52.548;4.918;2023-07-28T15:28:57;5.63;;;3.88;;
16977;SDS011;8605;52.548;4.918;2023-07-28T15:34:02;3.95;;;3.20;;
16977;SDS011;8605;52.548;4.918;2023-07-28T15:39:05;6.38;;;2.88;;
16977;SDS011;8605;52.548;4.918;2023-07-28T15:44:11;4.85;;;3.60;;
16977;SDS011;8605;52.548;4.918;2023-07-28T15:49:14;7.05;;;4.07;;
16977;SDS011;8605;52.548;4.918;2023-07-28T15:54:17;5.07;;;2.70;;
16977;SDS011;8605;52.548;4.918;2023-07-28T15:59:21;5.35;;;3.58;;
16977;SDS011;8605;52.548;4.918;2023-07-28T16:04:25;6.07;;;2.70;;
16977;SDS011;8605;52.548;4.918;2023-07-28T16:09:28;4.78;;;2.08;;
16977;SDS011;8605;52.548;4.918;2023-07-28T16:14:32;4.67;;;2.43;;
16977;SDS011;8605;52.548;4.918;2023-07-28T16:19:35;3.23;;;1.77;;
16977;SDS011;8605;52.548;4.918;2023-07-28T16:24:38;3.40;;;1.10;;
16977;SDS011;8605;52.548;4.918;2023-07-28T16:29:42;1.98;;;1.00;;
16977;SDS011;8605;52.548;4.918;2023-07-28T16:34:45;2.15;;;1.70;;
16977;SDS011;8605;52.548;4.918;2023-07-28T16:39:48;4.72;;;3.40;;
16977;SDS011;8605;52.548;4.918;2023-07-28T16:44:54;4.22;;;3.58;;
16977;SDS011;8605;52.548;4.918;2023-07-28T16:49:57;5.65;;;3.38;;
16977;SDS011;8605;52.548;4.918;2023-07-28T16:55:00;3.53;;;2.90;;
16977;SDS011;8605;52.548;4.918;2023-07-28T17:00:05;3.00;;;2.20;;
16977;SDS011;8605;52.548;4.918;2023-07-28T17:05:09;2.10;;;1.40;;
16977;SDS011;8605;52.548;4.918;2023-07-28T17:10:12;3.53;;;1.40;;
16977;SDS011;8605;52.548;4.918;2023-07-28T17:15:17;1.27;;;1.00;;
16977;SDS011;8605;52.548;4.918;2023-07-28T17:20:39;3.00;;;0.90;;
16977;SDS011;8605;52.548;4.918;2023-07-28T17:25:42;3.40;;;1.15;;
16977;SDS011;8605;52.548;4.918;2023-07-28T17:30:46;3.33;;;1.02;;
16977;SDS011;8605;52.548;4.918;2023-07-28T17:35:50;2.33;;;0.73;;
16977;SDS011;8605;52.548;4.918;2023-07-28T17:40:53;1.08;;;0.70;;
16977;SDS011;8605;52.548;4.918;2023-07-28T17:45:59;1.13;;;0.60;;
16977;SDS011;8605;52.548;4.918;2023-07-28T17:51:03;1.50;;;0.80;;
16977;SDS011;8605;52.548;4.918;2023-07-28T17:56:06;1.10;;;0.90;;
16977;SDS011;8605;52.548;4.918;2023-07-28T18:01:10;1.55;;;0.80;;
16977;SDS011;8605;52.548;4.918;2023-07-28T18:06:13;0.88;;;0.60;;
16977;SDS011;8605;52.548;4.918;2023-07-28T18:11:16;0.80;;;0.80;;
16977;SDS011;8605;52.548;4.918;2023-07-28T18:16:21;2.47;;;0.83;;
16977;SDS011;8605;52.548;4.918;2023-07-28T18:21:26;1.60;;;0.90;;
16977;SDS011;8605;52.548;4.918;2023-07-28T18:26:29;2.10;;;0.70;;
16977;SDS011;8605;52.548;4.918;2023-07-28T18:31:34;2.50;;;0.90;;
16977;SDS011;8605;52.548;4.918;2023-07-28T18:36:37;1.77;;;0.63;;
16977;SDS011;8605;52.548;4.918;2023-07-28T18:41:41;0.80;;;0.80;;
16977;SDS011;8605;52.548;4.918;2023-07-28T18:46:46;2.33;;;0.88;;
16977;SDS011;8605;52.548;4.918;2023-07-28T18:51:49;1.27;;;0.80;;
16977;SDS011;8605;52.548;4.918;2023-07-28T18:56:52;1.20;;;0.85;;
16977;SDS011;8605;52.548;4.918;2023-07-28T19:01:56;2.72;;;0.98;;
16977;SDS011;8605;52.548;4.918;2023-07-28T19:06:59;1.75;;;1.20;;
16977;SDS011;8605;52.548;4.918;2023-07-28T19:12:02;3.50;;;1.03;;
16977;SDS011;8605;52.548;4.918;2023-07-28T19:17:07;4.03;;;0.80;;
16977;SDS011;8605;52.548;4.918;2023-07-28T19:22:10;2.05;;;0.85;;
16977;SDS011;8605;52.548;4.918;2023-07-28T19:27:17;3.00;;;1.05;;
16977;SDS011;8605;52.548;4.918;2023-07-28T19:32:22;2.05;;;0.90;;
16977;SDS011;8605;52.548;4.918;2023-07-28T19:37:26;2.33;;;0.95;;
16977;SDS011;8605;52.548;4.918;2023-07-28T19:42:35;4.63;;;1.20;;
16977;SDS011;8605;52.548;4.918;2023-07-28T19:47:39;2.80;;;1.17;;
16977;SDS011;8605;52.548;4.918;2023-07-28T19:52:43;1.50;;;0.90;;
16977;SDS011;8605;52.548;4.918;2023-07-28T19:57:46;1.80;;;0.80;;
16977;SDS011;8605;52.548;4.918;2023-07-28T20:02:50;2.50;;;1.00;;
16977;SDS011;8605;52.548;4.918;2023-07-28T20:07:53;1.40;;;0.77;;
16977;SDS011;8605;52.548;4.918;2023-07-28T20:12:56;2.10;;;1.13;;
16977;SDS011;8605;52.548;4.918;2023-07-28T20:18:01;1.67;;;0.95;;
16977;SDS011;8605;52.548;4.918;2023-07-28T20:23:04;1.40;;;0.95;;
16977;SDS011;8605;52.548;4.918;2023-07-28T20:28:08;3.63;;;1.70;;
16977;SDS011;8605;52.548;4.918;2023-07-28T20:33:13;3.03;;;1.60;;
16977;SDS011;8605;52.548;4.918;2023-07-28T20:38:16;2.50;;;1.42;;
16977;SDS011;8605;52.548;4.918;2023-07-28T20:43:20;4.85;;;1.17;;
16977;SDS011;8605;52.548;4.918;2023-07-28T20:48:24;2.38;;;1.15;;
16977;SDS011;8605;52.548;4.918;2023-07-28T20:53:27;2.30;;;1.33;;
16977;SDS011;8605;52.548;4.918;2023-07-28T20:58:32;4.20;;;1.30;;
16977;SDS011;8605;52.548;4.918;2023-07-28T21:03:37;3.00;;;1.17;;
16977;SDS011;8605;52.548;4.918;2023-07-28T21:08:40;4.10;;;1.70;;
16977;SDS011;8605;52.548;4.918;2023-07-28T21:13:45;1.92;;;1.35;;
16977;SDS011;8605;52.548;4.918;2023-07-28T21:18:49;2.40;;;1.20;;
16977;SDS011;8605;52.548;4.918;2023-07-28T21:23:52;1.53;;;1.37;;
16977;SDS011;8605;52.548;4.918;2023-07-28T21:28:57;1.90;;;1.08;;
16977;SDS011;8605;52.548;4.918;2023-07-28T21:34:02;5.15;;;1.25;;
16977;SDS011;8605;52.548;4.918;2023-07-28T21:39:05;2.17;;;0.95;;
16977;SDS011;8605;52.548;4.918;2023-07-28T21:44:08;1.60;;;1.17;;
16977;SDS011;8605;52.548;4.918;2023-07-28T21:49:12;2.13;;;1.10;;
16977;SDS011;8605;52.548;4.918;2023-07-28T21:54:15;3.00;;;1.80;;
16977;SDS011;8605;52.548;4.918;2023-07-28T21:59:18;3.93;;;1.50;;
16977;SDS011;8605;52.548;4.918;2023-07-28T22:04:22;2.25;;;1.60;;
16977;SDS011;8605;52.548;4.918;2023-07-28T22:09:25;1.53;;;1.10;;
16977;SDS011;8605;52.548;4.918;2023-07-28T22:14:29;3.97;;;1.60;;
16977;SDS011;8605;52.548;4.918;2023-07-28T22:19:34;3.05;;;1.42;;
16977;SDS011;8605;52.548;4.918;2023-07-28T22:24:37;2.85;;;1.38;;
16977;SDS011;8605;52.548;4.918;2023-07-28T22:29:40;1.75;;;1.27;;
16977;SDS011;8605;52.548;4.918;2023-07-28T22:34:44;3.63;;;2.00;;
16977;SDS011;8605;52.548;4.918;2023-07-28T22:39:47;3.22;;;1.48;;
16977;SDS011;8605;52.548;4.918;2023-07-28T22:44:50;3.73;;;1.70;;
16977;SDS011;8605;52.548;4.918;2023-07-28T22:49:55;4.50;;;1.70;;
16977;SDS011;8605;52.548;4.918;2023-07-28T22:54:58;4.60;;;2.50;;
16977;SDS011;8605;52.548;4.918;2023-07-28T23:00:15;3.70;;;2.00;;
16977;SDS011;8605;52.548;4.918;2023-07-28T23:05:26;3.60;;;2.00;;
16977;SDS011;8605;52.548;4.918;2023-07-28T23:10:29;3.50;;;2.37;;
16977;SDS011;8605;52.548;4.918;2023-07-28T23:15:32;3.53;;;2.30;;
16977;SDS011;8605;52.548;4.918;2023-07-28T23:20:36;4.47;;;2.42;;
16977;SDS011;8605;52.548;4.918;2023-07-28T23:25:39;4.63;;;2.80;;
16977;SDS011;8605;52.548;4.918;2023-07-28T23:30:43;4.38;;;2.10;;
16977;SDS011;8605;52.548;4.918;2023-07-28T23:35:48;6.07;;;1.98;;
16977;SDS011;8605;52.548;4.918;2023-07-28T23:40:51;4.97;;;2.38;;
16977;SDS011;8605;52.548;4.918;2023-07-28T23:45:54;4.35;;;2.38;;
16977;SDS011;8605;52.548;4.918;2023-07-28T23:51:01;4.25;;;2.45;;
16977;SDS011;8605;52.548;4.918;2023-07-28T23:56:04;7.13;;;3.10;;
